Time;durP1;ratioP1;P1;durP2;ratioP2;P2;SDS_P1;SDS_P2;PMS_P1;PMS_P2;Temp;Humidity;BMP_temperature;BMP_pressure;BME280_temperature;BME280_humidity;BME280_pressure;Samples;Min_cycle;Max_cycle;Signal;HPM_P1;HPM_P2
2021/08/14 00:00:54;;;;;;;13.73;10.73;;;18.90;99.90;;;19.94;62.70;94875.53;5010857;28;20220;-74
2021/08/14 00:03:20;;;;;;;15.07;10.20;;;18.90;99.90;;;19.91;63.02;94878.84;5010001;28;20523;-74
2021/08/14 00:05:46;;;;;;;14.97;10.60;;;18.90;99.90;;;19.85;63.05;94888.88;4996012;28;20200;-74
2021/08/14 00:08:14;;;;;;;13.77;9.73;;;18.80;99.90;;;19.88;63.46;94899.03;4991157;28;20241;-74
2021/08/14 00:10:42;;;;;;;13.60;10.47;;;18.80;99.90;;;19.83;62.91;94874.13;4976942;28;20216;-74
2021/08/14 00:13:08;;;;;;;11.73;10.13;;;18.80;99.90;;;19.80;63.29;94863.97;4991356;28;20790;-75
2021/08/14 00:15:34;;;;;;;12.37;10.37;;;18.80;99.90;;;19.76;63.34;94865.66;4989309;28;20212;-74
2021/08/14 00:18:00;;;;;;;12.33;9.63;;;19.00;99.90;;;19.73;63.26;94868.94;5022363;28;20287;-74
2021/08/14 00:20:29;;;;;;;13.53;10.00;;;19.10;99.90;;;19.68;63.18;94877.88;4991759;28;20653;-75
2021/08/14 00:22:58;;;;;;;10.80;9.70;;;18.90;99.90;;;19.67;63.54;94870.94;5006546;28;20204;-74
2021/08/14 00:25:24;;;;;;;15.00;10.77;;;18.50;99.90;;;19.61;63.52;94853.28;5010643;28;20203;-75
2021/08/14 00:27:50;;;;;;;12.80;10.13;;;18.60;99.90;;;19.64;64.27;94870.72;5007022;28;20738;-74
2021/08/14 00:30:15;;;;;;;13.07;10.37;;;18.70;99.90;;;19.57;63.71;94862.25;5008697;28;20585;-74
2021/08/14 00:32:41;;;;;;;13.43;10.30;;;18.30;99.90;;;19.54;63.79;94866.31;5009299;28;20217;-74
2021/08/14 00:35:08;;;;;;;12.00;10.40;;;18.50;99.90;;;19.56;64.09;94874.91;5006064;28;20197;-74
2021/08/14 00:37:34;;;;;;;14.00;10.10;;;18.50;99.90;;;19.46;64.21;94861.63;5004143;28;20696;-73
2021/08/14 00:40:01;;;;;;;13.60;10.73;;;18.40;99.90;;;19.42;64.13;94861.41;4985567;28;20212;-74
2021/08/14 00:42:30;;;;;;;12.77;9.90;;;18.40;99.90;;;19.44;64.18;94864.59;4973932;28;20220;-75
2021/08/14 00:44:58;;;;;;;16.00;10.43;;;18.40;99.90;;;19.42;64.30;94861.41;5008622;28;20232;-74
2021/08/14 00:47:30;;;;;;;12.60;10.63;;;18.40;99.90;;;19.42;64.39;94866.00;4992139;28;20328;-74
2021/08/14 00:49:56;;;;;;;13.80;11.30;;;18.40;99.90;;;19.36;64.76;94861.78;5008232;28;20637;-73
2021/08/14 00:52:24;;;;;;;14.17;10.60;;;18.30;99.90;;;19.30;64.54;94861.06;4989874;28;20539;-74
2021/08/14 00:54:50;;;;;;;15.87;11.63;;;18.30;99.90;;;19.26;64.75;94856.56;4996730;28;20195;-73
2021/08/14 00:57:17;;;;;;;16.17;11.80;;;18.20;99.90;;;19.31;64.66;94854.59;4989898;28;20200;-74
2021/08/14 00:59:46;;;;;;;14.30;10.17;;;18.30;99.90;;;19.34;65.05;94856.69;4996711;28;20283;-73
2021/08/14 01:02:15;;;;;;;14.13;10.77;;;18.30;99.90;;;19.35;65.10;94852.91;4999209;28;20215;-73
2021/08/14 01:04:41;;;;;;;14.67;10.77;;;18.20;99.90;;;19.31;65.04;94851.09;5005469;28;20279;-75
2021/08/14 01:07:07;;;;;;;17.60;10.93;;;18.20;99.90;;;19.35;65.02;94866.34;4989419;28;20207;-73
2021/08/14 01:09:33;;;;;;;14.33;10.97;;;18.20;99.90;;;19.31;65.30;94849.22;5008694;28;20655;-75
2021/08/14 01:12:02;;;;;;;14.47;11.73;;;18.20;99.90;;;19.23;65.19;94859.84;4973013;28;20189;-73
2021/08/14 01:14:33;;;;;;;13.57;11.40;;;18.10;99.90;;;19.21;65.29;94857.44;4983550;28;20192;-75
2021/08/14 01:17:01;;;;;;;12.23;10.47;;;18.10;99.90;;;19.17;65.34;94856.44;5016612;28;20193;-73
2021/08/14 01:19:27;;;;;;;15.47;11.10;;;18.10;99.90;;;19.16;65.39;94854.84;4987959;28;20192;-74
2021/08/14 01:21:54;;;;;;;12.40;10.50;;;18.10;99.90;;;19.17;65.62;94844.91;4972202;28;20234;-73
2021/08/14 01:24:22;;;;;;;12.37;11.03;;;18.10;99.90;;;19.16;65.89;94856.75;5008353;28;20534;-74
2021/08/14 01:26:49;;;;;;;13.93;11.30;;;18.10;99.90;;;19.10;65.70;94853.34;4997725;28;20184;-74
2021/08/14 01:29:15;;;;;;;15.47;11.73;;;18.10;99.90;;;19.07;65.87;94851.22;5016851;28;20188;-74
2021/08/14 01:31:45;;;;;;;14.30;11.30;;;18.00;99.90;;;19.09;65.98;94859.00;4988974;28;20213;-74
2021/08/14 01:34:12;;;;;;;14.33;11.53;;;18.00;99.90;;;19.09;66.12;94857.13;4998689;28;20198;-74
2021/08/14 01:36:38;;;;;;;14.63;10.90;;;18.00;99.90;;;19.07;66.12;94851.22;4987758;28;20200;-77
2021/08/14 01:39:07;;;;;;;11.63;10.43;;;18.00;99.90;;;19.13;66.27;94857.34;4988654;28;20228;-75
2021/08/14 01:41:33;;;;;;;15.60;11.77;;;18.00;99.90;;;19.03;66.27;94846.75;4999885;28;20231;-74
2021/08/14 01:44:09;;;;;;;12.57;10.47;;;18.00;99.90;;;19.03;66.26;94858.31;4998579;28;20184;-74
2021/08/14 01:46:41;;;;;;;12.07;10.33;;;17.90;99.90;;;19.01;66.39;94852.41;4988133;28;20196;-73
2021/08/14 01:49:08;;;;;;;14.00;10.70;;;17.90;99.90;;;19.00;66.37;94856.22;4999272;28;20648;-75
2021/08/14 01:51:35;;;;;;;13.07;10.33;;;17.90;99.90;;;18.99;66.43;94853.78;4987960;28;20203;-74
2021/08/14 01:54:04;;;;;;;13.37;10.80;;;17.90;99.90;;;19.01;66.61;94852.41;5006509;28;20291;-74
2021/08/14 01:56:32;;;;;;;13.03;10.33;;;17.90;99.90;;;19.00;66.79;94852.72;5001309;28;20270;-74
2021/08/14 01:59:01;;;;;;;13.33;10.47;;;17.90;99.90;;;18.97;66.66;94853.31;5007896;28;20341;-74
2021/08/14 02:01:28;;;;;;;14.67;10.37;;;17.90;99.90;;;18.96;66.94;94849.81;4989912;28;20575;-75
2021/08/14 02:03:54;;;;;;;14.70;12.20;;;17.90;99.90;;;18.93;67.06;94829.72;5010595;28;20200;-74
2021/08/14 02:06:23;;;;;;;14.33;11.43;;;17.70;99.90;;;18.90;66.94;94845.63;5005191;28;20193;-74
2021/08/14 02:08:49;;;;;;;14.00;12.30;;;17.80;99.90;;;18.84;67.21;94836.03;4987888;28;20196;-75
2021/08/14 02:11:19;;;;;;;19.33;12.97;;;17.80;99.90;;;18.82;66.66;94836.31;5000171;28;20289;-74
2021/08/14 02:13:49;;;;;;;17.23;11.53;;;17.70;99.90;;;18.88;67.01;94837.03;4996042;28;20235;-74
2021/08/14 02:16:18;;;;;;;15.47;10.87;;;18.00;99.90;;;18.86;67.05;94828.47;4991721;28;20450;-73
2021/08/14 02:18:45;;;;;;;16.73;10.80;;;18.60;99.90;;;18.85;67.39;94835.75;5006935;28;20208;-74
2021/08/14 02:21:12;;;;;;;13.67;10.83;;;17.00;99.90;;;18.84;67.71;94838.69;5002356;28;20688;-74
2021/08/14 02:23:40;;;;;;;12.00;10.60;;;18.10;99.90;;;18.85;67.40;94834.94;5010894;28;20195;-73
2021/08/14 02:26:07;;;;;;;17.77;11.70;;;17.70;99.90;;;18.76;67.38;94823.28;4987233;28;20202;-74
2021/08/14 02:28:36;;;;;;;14.50;11.20;;;18.40;99.90;;;18.75;67.74;94829.72;4990496;28;20572;-73
2021/08/14 02:31:04;;;;;;;16.60;13.37;;;17.70;99.90;;;18.68;67.57;94819.34;5005197;28;20284;-74
2021/08/14 02:33:32;;;;;;;17.17;12.57;;;17.60;99.90;;;18.68;67.71;94826.59;4996424;28;20248;-73
2021/08/14 02:35:59;;;;;;;17.07;11.90;;;17.50;99.90;;;18.65;67.88;94825.31;4979705;28;20675;-73
2021/08/14 02:38:25;;;;;;;18.87;12.23;;;17.60;99.90;;;18.66;68.05;94824.22;5021321;28;20193;-73
2021/08/14 02:40:53;;;;;;;14.87;12.53;;;17.60;99.90;;;18.67;68.08;94827.72;4986820;28;20352;-74
2021/08/14 02:43:19;;;;;;;15.73;12.20;;;17.60;99.90;;;18.64;68.32;94825.59;4990801;28;20548;-74
2021/08/14 02:45:47;;;;;;;16.77;12.40;;;17.50;99.90;;;18.69;68.26;94820.97;4965769;28;20207;-74
2021/08/14 02:48:14;;;;;;;14.70;12.10;;;17.50;99.90;;;18.68;68.44;94823.91;5019117;28;20199;-73
2021/08/14 02:50:50;;;;;;;14.77;12.43;;;17.50;99.90;;;18.74;68.22;94830.81;5002720;28;20989;-74
2021/08/14 02:53:16;;;;;;;14.43;11.80;;;17.60;99.90;;;18.83;68.32;94818.31;5000718;28;20285;-74
2021/08/14 02:55:42;;;;;;;14.63;11.27;;;17.60;99.90;;;18.84;68.56;94822.59;5000368;28;20291;-74
2021/08/14 02:58:09;;;;;;;13.77;10.50;;;17.70;99.90;;;18.91;68.51;94823.00;5007296;28;20195;-73
2021/08/14 03:00:35;;;;;;;13.83;10.80;;;17.70;99.90;;;18.91;68.35;94820.31;5005116;28;20203;-74
2021/08/14 03:03:04;;;;;;;13.17;11.33;;;17.70;99.90;;;18.83;68.47;94821.81;5006798;28;20191;-73
2021/08/14 03:05:32;;;;;;;11.63;10.20;;;17.70;99.90;;;18.78;68.66;94821.88;4989418;28;20373;-73
2021/08/14 03:07:58;;;;;;;14.50;10.70;;;17.60;99.90;;;18.81;68.92;94820.50;5006537;28;20652;-75
2021/08/14 03:10:27;;;;;;;16.13;10.73;;;17.70;99.90;;;18.92;68.84;94824.63;5001838;28;20211;-74
2021/08/14 03:12:53;;;;;;;14.63;9.63;;;17.80;99.90;;;18.94;68.89;94820.53;4989424;28;20540;-73
2021/08/14 03:15:19;;;;;;;13.07;9.97;;;17.80;99.90;;;18.93;68.88;94818.16;5005932;28;20207;-74
2021/08/14 03:17:49;;;;;;;14.77;10.30;;;17.80;99.90;;;18.90;69.10;94824.13;5005001;28;20314;-74
2021/08/14 03:20:15;;;;;;;16.83;9.83;;;17.80;99.90;;;18.91;69.23;94817.63;4986610;28;20246;-75
2021/08/14 03:22:43;;;;;;;13.93;10.00;;;17.80;99.90;;;18.92;69.18;94821.94;4988062;28;20217;-74
2021/08/14 03:25:09;;;;;;;13.73;9.73;;;17.80;99.90;;;18.99;69.14;94827.72;5003557;28;20203;-73
2021/08/14 03:27:35;;;;;;;13.73;10.40;;;17.90;99.90;;;18.99;69.20;94824.25;5006812;28;20734;-75
2021/08/14 03:30:02;;;;;;;11.60;10.10;;;17.90;99.90;;;18.99;69.26;94827.72;4986862;28;20228;-72
2021/08/14 03:32:28;;;;;;;14.60;10.47;;;17.90;99.90;;;18.99;69.46;94824.25;4988735;28;20248;-73
2021/08/14 03:34:56;;;;;;;13.47;10.43;;;17.90;99.90;;;19.02;69.08;94829.81;4988402;28;20228;-72
2021/08/14 03:37:25;;;;;;;13.90;10.70;;;17.90;99.90;;;19.11;69.53;94825.38;5005634;28;20204;-75
2021/08/14 03:39:52;;;;;;;15.30;10.27;;;18.00;99.90;;;19.11;69.43;94825.38;4984892;28;20200;-74
2021/08/14 03:42:18;;;;;;;12.27;9.33;;;18.00;99.90;;;19.13;69.52;94822.41;5005051;28;20304;-74
2021/08/14 03:44:44;;;;;;;14.50;10.37;;;18.00;99.90;;;19.08;69.32;94828.66;4981561;28;20304;-75
2021/08/14 03:47:09;;;;;;;16.27;9.70;;;18.00;99.90;;;19.10;69.56;94820.31;4988368;28;20204;-75
2021/08/14 03:49:35;;;;;;;14.23;10.30;;;18.10;99.90;;;19.13;69.89;94820.50;4988519;28;20215;-75
2021/08/14 03:52:01;;;;;;;13.90;10.00;;;18.10;99.90;;;19.08;69.66;94817.91;4990553;28;20192;-75
2021/08/14 03:54:27;;;;;;;14.37;9.40;;;18.10;99.90;;;19.08;69.79;94817.09;5008964;28;20207;-74
2021/08/14 03:56:56;;;;;;;13.80;10.60;;;18.00;99.90;;;19.04;69.71;94826.84;5003283;28;20207;-75
2021/08/14 03:59:23;;;;;;;13.83;10.73;;;18.00;99.90;;;18.96;69.89;94822.94;5005011;28;20252;-75
2021/08/14 04:01:49;;;;;;;13.27;11.47;;;17.90;99.90;;;18.84;69.77;94825.28;5007686;28;20552;-75
2021/08/14 04:04:15;;;;;;;14.53;10.80;;;17.80;99.90;;;18.86;70.13;94833.84;4999961;28;20245;-74
2021/08/14 04:06:41;;;;;;;13.43;9.70;;;17.80;99.90;;;18.79;70.15;94836.91;5010686;28;20195;-73
2021/08/14 04:09:07;;;;;;;16.53;10.70;;;17.70;99.90;;;18.75;70.13;94829.72;4986592;28;20675;-74
2021/08/14 04:11:35;;;;;;;16.63;11.50;;;17.70;99.90;;;18.67;70.15;94835.78;5003945;28;20201;-75
2021/08/14 04:14:01;;;;;;;15.93;11.27;;;17.60;99.90;;;18.68;70.25;94843.53;5010301;28;20225;-75
2021/08/14 04:16:27;;;;;;;11.50;9.30;;;;;;;18.61;70.26;94824.28;5007220;28;20203;-75
2021/08/14 04:18:56;;;;;;;16.43;10.50;;;18.10;99.90;;;18.55;70.25;94830.81;5008564;28;20337;-75
2021/08/14 04:21:21;;;;;;;13.20;11.33;;;17.80;99.90;;;18.53;70.36;94832.22;5009712;28;20236;-74
2021/08/14 04:23:50;;;;;;;15.97;10.40;;;17.40;99.90;;;18.57;70.52;94844.75;5007156;28;20200;-74
2021/08/14 04:26:16;;;;;;;15.70;10.23;;;17.40;99.90;;;18.58;70.24;94832.13;4970316;28;20699;-75
2021/08/14 04:28:46;;;;;;;12.30;9.47;;;17.30;99.90;;;18.55;69.96;94830.81;5017628;28;20203;-76
2021/08/14 04:31:12;;;;;;;12.13;9.80;;;17.60;99.90;;;18.60;70.48;94829.97;5004857;28;20211;-75
2021/08/14 04:33:43;;;;;;;12.53;9.90;;;17.60;99.90;;;18.61;70.72;94831.53;4989799;28;20734;-74
2021/08/14 04:36:09;;;;;;;12.70;9.37;;;17.70;99.90;;;18.67;70.74;94843.81;4975576;28;20205;-76
2021/08/14 04:38:36;;;;;;;12.60;9.53;;;17.50;99.90;;;18.64;70.70;94839.00;4986029;28;20257;-76
2021/08/14 04:41:02;;;;;;;13.47;9.10;;;17.50;99.90;;;18.65;70.83;94836.06;4989446;28;20227;-75
2021/08/14 04:43:28;;;;;;;14.17;9.83;;;17.50;99.90;;;18.64;70.63;94837.13;4994445;28;20193;-75
2021/08/14 04:45:54;;;;;;;13.80;9.97;;;17.50;99.90;;;18.77;70.83;94841.75;5006029;28;20202;-76
2021/08/14 04:48:20;;;;;;;12.83;9.60;;;17.60;99.90;;;18.78;71.16;94842.56;5006832;28;20191;-75
2021/08/14 04:50:50;;;;;;;12.70;9.43;;;17.60;99.90;;;18.85;70.86;94848.38;4987014;28;20261;-75
2021/08/14 04:53:16;;;;;;;12.30;10.10;;;17.70;99.90;;;18.94;71.20;94843.91;4981918;28;20196;-74
2021/08/14 04:55:41;;;;;;;14.47;11.47;;;17.80;99.90;;;18.89;70.89;94836.75;4986949;28;20191;-76
2021/08/14 04:58:08;;;;;;;15.77;11.13;;;17.80;99.90;;;18.93;71.14;94843.16;4968332;28;20208;-75
2021/08/14 05:00:35;;;;;;;14.03;10.40;;;17.70;99.90;;;19.01;71.22;94848.91;4984338;28;20299;-75
2021/08/14 05:03:06;;;;;;;15.00;10.60;;;17.80;99.90;;;19.08;71.13;94849.34;4996730;28;20186;-75
2021/08/14 05:05:32;;;;;;;14.17;10.13;;;17.90;99.90;;;19.15;71.39;94829.06;5007706;28;20198;-76
2021/08/14 05:07:57;;;;;;;14.40;9.93;;;18.00;99.90;;;19.23;71.14;94841.84;5007049;28;20765;-74
2021/08/14 05:10:25;;;;;;;11.07;9.00;;;18.10;99.90;;;19.36;71.41;94841.06;4974444;28;20257;-75
2021/08/14 05:12:57;;;;;;;14.00;10.17;;;18.20;99.90;;;19.39;71.34;94842.38;4989996;28;20656;-75
2021/08/14 05:15:23;;;;;;;11.50;9.53;;;18.20;99.90;;;19.46;71.38;94850.88;5007973;28;20200;-74
2021/08/14 05:17:49;;;;;;;13.10;8.93;;;18.30;99.90;;;19.51;71.51;94840.00;5005252;28;20303;-74
2021/08/14 05:20:14;;;;;;;10.37;9.27;;;18.40;99.90;;;19.60;71.22;94837.44;4968835;28;20644;-75
2021/08/14 05:22:40;;;;;;;11.43;9.20;;;18.50;99.90;;;19.74;71.40;94846.34;4989580;28;20319;-75
2021/08/14 05:25:06;;;;;;;14.37;9.23;;;18.60;99.90;;;19.87;71.54;94854.41;5006967;28;20227;-75
2021/08/14 05:27:32;;;;;;;12.67;9.50;;;18.70;99.90;;;19.95;71.41;94848.31;5005124;28;20214;-74
2021/08/14 05:29:58;;;;;;;11.50;9.07;;;18.80;99.90;;;20.10;71.40;94847.22;5006125;28;20200;-74
2021/08/14 05:32:24;;;;;;;16.03;8.80;;;19.00;99.90;;;20.33;71.45;94853.50;4990143;28;20217;-74
2021/08/14 05:34:50;;;;;;;13.27;8.77;;;19.20;99.90;;;20.51;71.43;94843.69;4989983;28;20204;-74
2021/08/14 05:37:16;;;;;;;14.23;9.40;;;19.40;99.90;;;20.71;71.59;94849.44;5005211;28;20279;-74
2021/08/14 05:39:42;;;;;;;10.90;8.70;;;19.50;99.90;;;20.89;71.64;94845.75;4990156;28;20681;-74
2021/08/14 05:42:13;;;;;;;13.30;9.20;;;19.70;99.90;;;21.07;71.59;94844.00;4990838;28;20216;-74
2021/08/14 05:44:39;;;;;;;13.70;9.03;;;19.90;99.90;;;21.21;71.59;94839.38;5004135;28;20311;-75
2021/08/14 05:47:05;;;;;;;11.80;8.80;;;20.10;99.90;;;21.29;71.44;94846.69;4990085;28;20188;-75
2021/08/14 05:49:31;;;;;;;10.90;8.57;;;20.20;99.90;;;21.47;71.47;94848.41;5000742;28;20191;-75
2021/08/14 05:51:59;;;;;;;11.90;9.30;;;20.30;99.90;;;21.55;71.61;94849.56;4993256;28;20193;-74
2021/08/14 05:54:25;;;;;;;12.30;8.87;;;20.50;99.90;;;21.73;71.34;94853.13;4997686;28;20189;-74
2021/08/14 05:56:51;;;;;;;13.07;8.83;;;20.60;99.90;;;21.87;71.47;94843.03;5006873;28;20280;-76
2021/08/14 05:59:17;;;;;;;11.17;8.50;;;20.70;99.90;;;22.09;71.42;94840.31;4988784;28;21000;-76
2021/08/14 06:01:43;;;;;;;15.97;8.53;;;20.90;99.90;;;22.26;71.36;94856.53;5004234;28;20240;-75
2021/08/14 06:04:09;;;;;;;12.70;8.53;;;21.10;99.90;;;22.41;71.11;94847.19;4998222;28;20216;-74
2021/08/14 06:06:38;;;;;;;12.10;7.27;;;21.20;99.90;;;22.72;71.37;94850.63;4989017;28;20204;-75
2021/08/14 06:09:04;;;;;;;12.20;8.90;;;21.50;99.90;;;23.21;71.17;94860.16;4996680;28;20661;-76
2021/08/14 06:11:30;;;;;;;9.10;6.07;;;21.90;99.90;;;24.34;71.00;94900.16;4987800;28;20216;-76
2021/08/14 06:13:56;;;;;;;9.03;7.23;;;22.90;99.90;;;25.72;70.77;94893.81;4981486;28;20209;-74
2021/08/14 06:16:22;;;;;;;10.80;7.00;;;24.30;99.90;;;26.90;70.64;94853.78;5006168;28;20223;-74
2021/08/14 06:18:48;;;;;;;9.33;6.37;;;26.60;99.90;;;28.03;70.00;94915.00;4997449;28;20276;-74
2021/08/14 06:21:14;;;;;;;9.07;6.33;;;26.80;99.90;;;29.23;69.79;94902.69;5002236;28;20224;-74
2021/08/14 06:23:40;;;;;;;12.83;6.33;;;28.20;99.90;;;29.92;69.15;94924.44;4995418;28;20260;-74
2021/08/14 06:26:06;;;;;;;12.00;6.40;;;29.00;99.90;;;29.76;69.25;94816.31;5001318;28;20740;-75
2021/08/14 06:28:37;;;;;;;10.00;6.10;;;29.50;99.90;;;30.11;68.85;94814.22;5004585;28;20267;-74
2021/08/14 06:31:03;;;;;;;11.17;5.70;;;29.90;99.90;;;29.92;68.58;94806.88;4988715;28;20304;-75
2021/08/14 06:33:31;;;;;;;12.00;6.27;;;29.80;99.90;;;31.03;67.57;94917.78;4950670;28;20193;-74
2021/08/14 06:35:57;;;;;;;10.27;5.90;;;30.70;99.90;;;32.23;67.64;94863.66;5003357;28;20197;-75
2021/08/14 06:38:26;;;;;;;9.47;5.60;;;31.80;99.90;;;32.52;66.46;94846.25;4986176;28;20805;-74
2021/08/14 06:40:52;;;;;;;10.50;6.20;;;32.20;99.90;;;32.96;66.19;94862.69;4988094;28;20225;-76
2021/08/14 06:43:18;;;;;;;11.03;6.20;;;32.80;99.90;;;32.83;66.29;94833.16;5002712;28;20696;-75
2021/08/14 06:45:44;;;;;;;10.00;5.87;;;33.10;99.90;;;33.45;65.47;94817.38;5002121;28;20211;-75
2021/08/14 06:48:16;;;;;;;10.30;5.28;;;33.70;99.90;;;33.76;64.72;94857.19;4999702;28;20832;-75
2021/08/14 06:50:45;;;;;;;7.78;5.60;;;34.00;99.90;;;34.14;64.55;94853.00;4985599;28;20205;-76
2021/08/14 06:53:15;;;;;;;22.70;6.63;;;34.40;99.90;;;33.68;64.39;94757.34;4998308;28;20203;-76
2021/08/14 06:55:41;;;;;;;10.50;5.95;;;34.30;99.90;;;33.33;63.26;94901.00;5004006;28;20235;-75
2021/08/14 06:58:09;;;;;;;8.77;5.72;;;33.90;99.90;;;33.90;62.94;94782.94;4981474;28;20205;-76
2021/08/14 07:00:35;;;;;;;10.15;5.53;;;34.50;99.90;;;32.88;62.57;94830.03;4987312;28;20203;-76
2021/08/14 07:03:04;;;;;;;11.70;6.18;;;33.60;99.90;;;33.34;62.61;94864.06;4984195;28;20676;-75
2021/08/14 07:05:30;;;;;;;14.73;5.70;;;34.00;99.90;;;34.36;61.59;94873.84;5003083;28;20556;-75
2021/08/14 07:07:56;;;;;;;9.27;6.10;;;34.80;99.90;;;35.08;61.50;94881.72;5004739;28;20276;-75
2021/08/14 07:10:22;;;;;;;9.88;6.75;;;35.90;99.10;;;34.59;60.81;94799.09;5000409;28;20504;-74
2021/08/14 07:12:47;;;;;;;10.77;6.43;;;35.50;98.50;;;34.76;60.76;94834.13;4982872;28;20190;-75
2021/08/14 07:15:14;;;;;;;10.13;6.45;;;35.70;97.60;;;35.47;59.57;94827.25;5000590;28;20216;-77
2021/08/14 07:17:40;;;;;;;8.82;6.00;;;36.00;96.70;;;35.99;59.49;94808.88;4997994;28;20272;-75
2021/08/14 07:20:12;;;;;;;11.65;6.68;;;36.70;96.40;;;35.89;58.88;94775.81;5002653;28;20204;-76
2021/08/14 07:22:38;;;;;;;9.73;6.10;;;36.80;94.30;;;37.00;58.14;94805.69;5003678;28;20209;-75
2021/08/14 07:25:04;;;;;;;8.88;6.25;;;37.60;94.10;;;37.37;57.80;94843.63;4969974;28;20375;-75
2021/08/14 07:27:35;;;;;;;7.78;5.45;;;38.40;92.80;;;38.43;56.49;94911.56;5003382;28;20598;-75
2021/08/14 07:30:03;;;;;;;9.38;6.45;;;39.40;91.00;;;38.35;56.73;94953.59;5017273;28;20567;-76
2021/08/14 07:32:33;;;;;;;8.75;6.15;;;39.20;90.20;;;38.55;56.30;94812.41;4981322;28;20215;-76
2021/08/14 07:34:59;;;;;;;11.15;5.80;;;39.60;86.90;;;38.25;55.88;94822.31;5001512;28;20582;-76
2021/08/14 07:37:25;;;;;;;11.38;6.50;;;39.50;86.80;;;38.22;54.96;94786.34;4973912;28;20195;-74
2021/08/14 07:39:51;;;;;;;8.57;5.80;;;39.60;86.50;;;37.86;54.95;94819.31;4993597;28;20188;-75
2021/08/14 07:42:17;;;;;;;11.05;6.25;;;39.50;86.60;;;39.10;53.68;94826.47;4990696;28;20221;-74
2021/08/14 07:44:46;;;;;;;7.43;5.88;;;39.90;83.70;;;39.29;53.35;94811.06;5007999;28;20196;-74
2021/08/14 07:47:12;;;;;;;11.32;6.00;;;40.90;81.10;;;39.83;52.57;94867.91;4990325;28;20198;-74
2021/08/14 07:49:38;;;;;;;7.43;5.72;;;41.60;79.60;;;39.68;52.40;94711.13;5004589;28;20195;-75
2021/08/14 07:52:04;;;;;;;11.05;5.75;;;41.80;80.20;;;39.51;52.40;94800.31;5003252;28;20205;-73
2021/08/14 07:54:30;;;;;;;9.80;6.15;;;41.60;79.30;;;38.68;52.10;94800.28;5001095;28;20566;-73
2021/08/14 07:56:56;;;;;;;10.02;5.75;;;40.80;80.40;;;38.43;51.37;94858.09;5001548;28;20208;-72
2021/08/14 07:59:23;;;;;;;10.13;6.07;;;40.20;81.90;;;38.35;51.30;94777.03;4973233;28;20201;-73
2021/08/14 08:01:50;;;;;;;14.63;5.80;;;40.20;80.00;;;37.86;50.68;94781.34;4990306;28;20719;-73
2021/08/14 08:04:16;;;;;;;10.05;5.57;;;39.60;80.60;;;38.51;50.23;94917.00;4988675;28;20196;-73
2021/08/14 08:06:42;;;;;;;8.65;5.60;;;40.10;80.40;;;38.90;50.20;94715.50;5008237;28;20197;-73
2021/08/14 08:09:11;;;;;;;11.73;6.15;;;40.60;78.20;;;37.61;49.62;94778.13;4999754;28;20239;-72
2021/08/14 08:11:37;;;;;;;7.82;5.43;;;39.50;79.30;;;39.19;49.38;94876.63;5004283;28;20210;-74
2021/08/14 08:14:02;;;;;;;10.88;6.03;;;40.80;78.50;;;39.36;48.56;94736.78;5000157;28;20625;-73
2021/08/14 08:16:28;;;;;;;13.23;6.05;;;40.90;75.60;;;38.76;48.60;94792.59;5008481;28;20629;-73
2021/08/14 08:18:56;;;;;;;9.63;5.55;;;40.70;76.10;;;39.29;47.67;94747.22;4989959;28;20202;-72
2021/08/14 08:21:22;;;;;;;7.70;5.07;;;41.10;75.30;;;39.73;47.66;94701.47;5002510;28;20820;-73
2021/08/14 08:23:48;;;;;;;14.02;5.63;;;41.80;72.40;;;39.21;46.84;94881.78;4990684;28;20248;-73
2021/08/14 08:26:16;;;;;;;7.32;5.32;;;40.90;73.80;;;38.91;46.72;94763.44;4998233;28;20244;-73
2021/08/14 08:28:42;;;;;;;8.40;5.60;;;40.60;73.50;;;39.26;46.44;94739.78;4981612;28;20577;-73
2021/08/14 08:31:08;;;;;;;12.35;5.93;;;40.60;76.10;;;39.46;45.76;94860.69;5005017;28;20221;-73
2021/08/14 08:33:34;;;;;;;8.75;5.70;;;40.90;74.00;;;40.91;45.56;94885.31;4975900;28;20204;-74
2021/08/14 08:36:02;;;;;;;10.73;5.20;;;42.10;71.40;;;41.99;45.12;94909.94;5002606;28;20643;-74
2021/08/14 08:38:30;;;;;;;10.13;5.38;;;43.40;69.70;;;43.03;44.67;94819.03;4981123;28;20181;-74
2021/08/14 08:40:56;;;;;;;10.10;5.35;;;44.80;66.00;;;43.14;44.16;94688.22;5004226;28;20185;-75
2021/08/14 08:43:23;;;;;;;6.40;5.65;;;45.20;64.20;;;42.64;44.04;94708.75;4996492;28;20189;-72
2021/08/14 08:45:48;;;;;;;12.90;6.13;;;45.30;63.50;;;43.62;43.12;94812.56;5000447;28;20273;-71
2021/08/14 08:48:19;;;;;;;9.40;5.68;;;46.20;62.80;;;42.77;43.32;94770.84;5000755;28;20280;-72
2021/08/14 08:50:48;;;;;;;8.05;5.40;;;45.40;63.10;;;44.62;42.15;94877.47;4987384;28;20301;-72
2021/08/14 08:53:15;;;;;;;12.10;5.57;;;46.80;63.10;;;44.20;41.99;94754.03;5001282;28;20668;-72
2021/08/14 08:55:41;;;;;;;10.80;5.47;;;46.70;63.70;;;44.16;41.74;94820.47;5006042;28;20224;-72
2021/08/14 08:58:07;;;;;;;12.55;5.82;;;46.60;62.80;;;44.68;41.00;94865.19;4982145;28;20189;-72
2021/08/14 09:00:33;;;;;;;9.60;5.40;;;47.30;61.20;;;45.60;40.70;94679.13;5006110;28;20204;-72
2021/08/14 09:03:14;;;;;;;8.73;6.10;;;48.40;60.90;;;44.25;40.43;94739.44;5000244;28;20204;-72
2021/08/14 09:05:56;;;;;;;8.93;6.15;;;47.40;58.30;;;45.47;39.68;94843.13;5007214;28;20541;-72
2021/08/14 09:08:27;;;;;;;8.98;5.68;;;48.40;58.60;;;46.06;39.18;94800.34;4999485;28;20602;-72
2021/08/14 09:11:19;;;;;;;8.32;5.38;;;48.70;57.80;;;46.12;38.92;94862.22;5003822;28;21041;-72
2021/08/14 09:14:14;;;;;;;9.40;5.80;;;48.90;57.50;;;46.24;38.21;94824.78;4996877;28;20288;-72
2021/08/14 09:16:44;;;;;;;10.85;6.32;;;49.20;56.00;;;46.53;38.04;94825.00;4985402;28;20215;-72
2021/08/14 09:19:22;;;;;;;11.02;5.63;;;49.30;55.60;;;44.47;37.70;94728.91;4989285;28;20185;-72
2021/08/14 09:21:49;;;;;;;11.02;5.25;;;48.20;55.70;;;45.84;36.90;94851.03;4998483;28;20705;-72
2021/08/14 09:24:38;;;;;;;11.95;5.57;;;48.50;56.10;;;47.00;36.88;94840.34;5003909;28;20706;-72
2021/08/14 09:27:05;;;;;;;8.48;5.45;;;49.80;56.50;;;46.97;36.38;94700.88;5006609;28;20197;-72
2021/08/14 09:29:37;;;;;;;10.38;6.03;;;50.30;54.60;;;46.82;35.80;94740.91;5002865;28;20205;-72
2021/08/14 09:32:10;;;;;;;7.82;5.93;;;50.30;54.50;;;45.82;35.77;94612.41;4983932;28;20242;-72
2021/08/14 09:34:49;;;;;;;10.48;6.47;;;49.80;54.60;;;46.04;35.23;94782.44;5003651;28;20545;-72
2021/08/14 09:37:19;;;;;;;11.15;5.85;;;49.60;54.80;;;46.63;34.84;94755.53;4996261;28;20198;-72
2021/08/14 09:40:00;;;;;;;9.00;6.10;;;49.90;55.30;;;46.80;34.64;94815.66;4988040;28;20200;-72
2021/08/14 09:42:28;;;;;;;9.80;5.40;;;50.00;54.60;;;46.97;34.38;94785.13;4998801;28;20193;-72
2021/08/14 09:45:14;;;;;;;9.00;5.50;;;50.30;54.90;;;47.60;33.55;94888.66;5002794;28;20201;-72
2021/08/14 09:47:51;;;;;;;9.23;6.13;;;50.70;53.90;;;48.49;33.26;94779.75;4996756;28;20580;-72
2021/08/14 09:50:17;;;;;;;9.13;5.95;;;51.70;52.70;;;48.59;33.47;94679.81;5002757;28;20200;-72
2021/08/14 09:52:51;;;;;;;9.63;5.60;;;51.60;52.40;;;47.34;32.98;94631.84;4997349;28;20225;-72
2021/08/14 09:55:29;;;;;;;8.88;5.65;;;51.10;52.50;;;48.17;32.58;94793.56;5002791;28;20216;-72
2021/08/14 09:58:02;;;;;;;8.07;4.95;;;51.80;52.00;;;47.41;32.40;94788.88;4998790;28;20198;-72
2021/08/14 10:00:33;;;;;;;11.30;5.38;;;50.90;52.40;;;48.42;32.04;94785.81;5004797;28;20805;-72
2021/08/14 10:03:02;;;;;;;7.45;4.50;;;51.60;50.10;;;47.80;31.50;94747.41;4998861;28;20221;-72
2021/08/14 10:05:32;;;;;;;10.48;4.63;;;51.30;49.40;;;47.86;31.13;94801.72;5003979;28;20254;-72
2021/08/14 10:08:02;;;;;;;8.18;4.63;;;51.50;50.20;;;48.21;31.28;94694.88;4978695;28;20567;-72
2021/08/14 10:10:29;;;;;;;8.82;4.68;;;52.00;48.80;;;48.50;30.90;94702.47;5002886;28;20193;-72
2021/08/14 10:12:59;;;;;;;10.10;4.72;;;52.40;48.70;;;48.98;30.18;94790.22;5001034;28;20224;-71